Terminal Aerodrome Forecast
Issued by NWS St Louis, MO

Home | Current Version | Previous Version | Graphics & Text | Print | Product List | Glossary On
Versions: 1 2 3 4 5 6 7 8 9 10 11 12 13 14 15
000
FTUS43 KLSX 312320
TAFCOU
TAF
KCOU 312320Z 0100/0124 VRB03KT P6SM VCSH SCT080
     FM010200 00000KT P6SM VCTS BKN080CB
     FM010600 VRB03KT P6SM VCSH BKN080
     FM011500 32006KT P6SM BKN150=

USA.gov is the U.S. government's official web portal to all federal, state and local government web resources and services.